Data for 12/23/2005

Time Sea-Level Adjusted Pressure Absolute Pressure Temperature Relative Humidity Dew Point   
(mb) (inHg) (mb) (inHg) (C) (F) (%) (C) (F)
00:05 1010 29.83 839 24.78 8.3 47 53 -0.8 30.6
00:10 1010 29.83 839 24.78 8.7 47.6 51 -0.9 30.4
00:15 1010 29.83 839 24.78 8.9 48 50 -0.9 30.4
00:20 1010 29.83 839 24.78 9.1 48.4 50 -0.7 30.7
00:25 1010 29.83 839 24.78 8.9 48 51 -0.7 30.7
00:30 1010 29.83 839 24.78 8.7 47.6 52 -0.5 31.1
00:35 1010 29.83 839 24.78 8.2 46.8 55 -0.4 31.3
00:40 1010 29.83 839 24.78 7.8 46 56 -0.4 31.3
00:45 1010 29.83 839 24.78 7.4 45.4 57 -0.5 31.2
00:50 1010 29.83 839 24.78 7.3 45.2 57 -0.7 30.7
00:55 1010 29.83 839 24.78 7.6 45.7 54 -1 30.2
01:00 1009 29.8 839 24.78 7.8 46 55 -0.7 30.7
01:05 1010 29.83 839 24.78 7.7 45.9 55 -0.7 30.8
01:10 1010 29.83 839 24.78 7.7 45.8 55 -0.8 30.6
01:15 1010 29.83 839 24.78 7.5 45.5 56 -0.6 30.9
01:20 1010 29.83 839 24.78 7.3 45.1 58 -0.5 31.1
01:25 1010 29.83 839 24.78 7.1 44.8 56 -0.9 30.3
01:30 1011 29.85 840 24.81 6 42.8 76 2.2 35.9
01:35 1012 29.88 841 24.83 4 39.2 84 1.5 34.8
01:40 1012 29.88 841 24.83 2.7 36.8 90 1.2 34.1
01:45 1012 29.88 841 24.83 1.9 35.4 93 1 33.7
01:50 1012 29.88 842 24.86 1.7 35 94 0.8 33.5
01:55 1013 29.91 842 24.86 1.5 34.8 95 0.8 33.4
02:00 1013 29.91 842 24.86 1.3 34.4 95 0.6 33.2
02:05 1013 29.91 842 24.86 1.4 34.5 95 0.7 33.3
02:10 1013 29.91 842 24.86 1.6 34.8 94 0.7 33.2
02:15 1013 29.91 842 24.86 2 35.6 92 0.8 33.4
02:20 1013 29.91 842 24.86 2 35.6 91 0.7 33.2
02:25 1013 29.91 842 24.86 2.2 36 90 0.7 33.2
02:30 1013 29.91 842 24.86 2.2 36 89 0.7 33.2
02:35 1013 29.91 842 24.86 2.2 35.9 90 0.7 33.2
02:40 1013 29.91 842 24.86 2.1 35.7 91 0.7 33.2
02:45 1013 29.91 842 24.86 2 35.6 90 0.5 32.9
02:50 1013 29.91 842 24.86 2.1 35.8 88 0.4 32.8
02:55 1013 29.91 842 24.86 2.3 36.1 87 0.3 32.5
03:00 1013 29.91 842 24.86 2.5 36.5 85 0.2 32.4
03:05 1013 29.91 842 24.86 2.6 36.7 86 0.4 32.8
03:10 1013 29.91 842 24.86 2.6 36.6 86 0.4 32.7
03:15 1013 29.91 842 24.86 2.5 36.5 86 0.4 32.7
03:20 1013 29.91 842 24.86 2.6 36.7 85 0.3 32.6
03:25 1013 29.91 842 24.86 2.9 37.2 83 0.3 32.6
03:30 1013 29.91 842 24.86 3.1 37.6 82 0.4 32.7
03:35 1013 29.91 842 24.86 3.3 37.9 83 0.7 33.2
03:40 1013 29.91 843 24.89 2.7 36.8 88 0.9 33.6
03:45 1013 29.91 843 24.89 2.1 35.7 90 0.6 33.1
03:50 1013 29.91 843 24.89 2.2 35.9 87 0.2 32.4
03:55 1013 29.91 842 24.86 2.7 36.9 78 -0.7 30.8
04:00 1013 29.91 843 24.89 3.1 37.6 78 -0.3 31.5
04:05 1014 29.94 843 24.89 3.1 37.6 79 -0.1 31.9
04:10 1014 29.94 843 24.89 3.1 37.5 76 -0.7 30.8
04:15 1014 29.94 843 24.89 3.3 38 65 -2.6 27.4
04:20 1014 29.94 843 24.89 4.2 39.5 62 -2.3 27.8
04:25 1014 29.94 843 24.89 4.4 39.9 60 -2.8 27
04:30 1014 29.94 843 24.89 4.5 40.1 61 -2.4 27.6
04:35 1014 29.94 843 24.89 4.3 39.8 62 -2.3 27.8
04:40 1014 29.94 844 24.92 4 39.3 65 -2 28.3
04:45 1015 29.97 844 24.92 3.9 39.1 65 -2.1 28.2
04:50 1015 29.97 844 24.92 3.9 39 64 -2.2 28
04:55 1015 29.97 844 24.92 3.9 39 62 -2.7 27.2
05:00 1015 29.97 844 24.92 4 39.3 62 -2.5 27.5
05:05 1015 29.97 844 24.92 4 39.2 63 -2.5 27.6
05:10 1015 29.97 844 24.92 3.9 39 59 -3.3 26.1
05:15 1015 29.97 844 24.92 4 39.2 59 -3.3 26
05:20 1015 29.97 844 24.92 4.1 39.3 57 -3.6 25.5
05:25 1015 29.97 844 24.92 4.1 39.4 58 -3.4 25.8
05:30 1015 29.97 845 24.95 4 39.2 59 -3.3 26
05:35 1016 30 845 24.95 3.9 38.9 62 -2.8 26.9
05:40 1016 30 845 24.95 3.5 38.3 64 -2.7 27.1
05:45 1016 30 845 24.95 3.3 38 64 -2.9 26.8
05:50 1016 30 845 24.95 3.2 37.8 67 -2.4 27.7
05:55 1016 30 845 24.95 2.8 37 71 -2 28.4
06:00 1016 30 845 24.95 3 37.4 68 -2.2 28
06:05 1016 30 845 24.95 3.2 37.7 67 -2.4 27.7
06:10 1016 30 845 24.95 3.3 38 65 -2.5 27.4
06:15 1016 30 845 24.95 3.5 38.3 65 -2.5 27.5
06:20 1016 30 846 24.98 3.6 38.4 65 -2.5 27.5
06:25 1017 30.03 846 24.98 3.6 38.5 64 -2.5 27.4
06:30 1017 30.03 846 24.98 3.5 38.3 64 -2.6 27.4
06:35 1017 30.03 846 24.98 3.6 38.5 63 -2.7 27.1
06:40 1017 30.03 846 24.98 3.7 38.7 60 -3.3 26.1
06:45 1017 30.03 846 24.98 4.1 39.3 56 -4 24.8
06:50 1017 30.03 846 24.98 4.4 39.9 55 -3.7 25.3
06:55 1017 30.03 846 24.98 4.4 39.8 56 -3.6 25.6
07:00 1017 30.03 846 24.98 4.3 39.8 54 -4.1 24.5
07:05 1017 30.03 846 24.98 4.5 40 54 -4 24.7
07:10 1017 30.03 846 24.98 4.3 39.7 57 -3.4 25.8
07:15 1017 30.03 846 24.98 4.2 39.6 53 -4.4 24
07:20 1017 30.03 846 24.98 4.5 40.1 51 -4.8 23.4
07:25 1017 30.03 846 24.98 4.5 40.1 51 -4.8 23.4
07:30 1017 30.03 846 24.98 4.5 40.1 52 -4.5 24
07:35 1017 30.03 846 24.98 4.5 40.1 51 -4.7 23.5
07:40 1017 30.03 846 24.98 4.6 40.4 50 -4.9 23.1
07:45 1017 30.03 846 24.98 4.6 40.3 51 -4.7 23.5
07:50 1017 30.03 846 24.98 4.6 40.2 52 -4.4 24.1
07:55 1017 30.03 847 25.01 4.5 40.1 51 -4.8 23.4
08:00 1018 30.06 847 25.01 4.6 40.2 50 -5 23
08:05 1018 30.06 847 25.01 4.8 40.6 48 -5.2 22.6
08:10 1018 30.06 847 25.01 4.9 40.8 49 -5.1 22.9
08:15 1018 30.06 847 25.01 4.7 40.5 49 -5 23
08:20 1018 30.06 847 25.01 4.7 40.5 47 -5.7 21.8
08:25 1018 30.06 847 25.01 4.8 40.7 48 -5.2 22.6
08:30 1018 30.06 847 25.01 4.8 40.6 49 -5 23.1
08:35 1018 30.06 848 25.04 4.7 40.4 50 -4.9 23.1
08:40 1019 30.09 848 25.04 4.6 40.3 51 -4.6 23.7
08:45 1019 30.09 848 25.04 4.6 40.2 49 -5.1 22.8
08:50 1019 30.09 848 25.04 4.7 40.5 48 -5.3 22.4
08:55 1019 30.09 848 25.04 4.8 40.6 47 -5.7 21.8
09:00 1019 30.09 848 25.04 4.8 40.7 48 -5.4 22.3
09:05 1019 30.09 848 25.04 4.7 40.5 48 -5.4 22.3
09:10 1019 30.09 848 25.04 4.7 40.4 49 -5.2 22.7
09:15 1019 30.09 849 25.07 4.7 40.4 48 -5.4 22.3
09:20 1019 30.09 849 25.07 4.6 40.3 49 -5.1 22.9
09:25 1020 30.12 849 25.07 4.6 40.2 49 -5.1 22.7
09:30 1020 30.12 849 25.07 4.6 40.3 48 -5.4 22.4
09:35 1020 30.12 849 25.07 4.7 40.5 49 -5.2 22.6
09:40 1020 30.12 849 25.07 4.6 40.3 49 -5.2 22.7
09:45 1020 30.12 850 25.1 4.6 40.2 50 -4.9 23.1
09:50 1020 30.12 850 25.1 4.5 40.2 50 -5 23.1
09:55 1021 30.15 850 25.1 4.6 40.3 50 -5.1 22.9
10:00 1021 30.15 850 25.1 4.7 40.5 48 -5.2 22.6
10:05 1021 30.15 850 25.1 4.8 40.6 49 -5.2 22.7
10:10 1021 30.15 850 25.1 4.8 40.6 50 -4.9 23.2
10:15 1021 30.15 850 25.1 4.7 40.5 50 -4.8 23.3
10:20 1021 30.15 850 25.1 4.7 40.5 50 -4.7 23.5
10:25 1021 30.15 850 25.1 4.6 40.3 51 -4.5 23.8
10:30 1021 30.15 851 25.13 4.5 40.2 52 -4.6 23.7
10:35 1021 30.15 851 25.13 4.4 40 53 -4.4 24.1
10:40 1021 30.15 851 25.13 4.6 40.3 51 -4.7 23.6
10:45 1021 30.15 851 25.13 4.7 40.4 51 -4.7 23.5
10:50 1022 30.18 851 25.13 4.8 40.6 51 -4.5 23.9
10:55 1022 30.18 851 25.13 4.8 40.7 51 -4.4 24
11:00 1022 30.18 851 25.13 4.9 40.8 51 -4.4 24
11:05 1022 30.18 851 25.13 5.1 41.1 50 -4.4 24.1
11:10 1022 30.18 851 25.13 5.2 41.3 51 -4.2 24.4
11:15 1022 30.18 851 25.13 5.2 41.3 51 -4 24.8
11:20 1022 30.18 851 25.13 5.1 41.2 52 -3.8 25.1
11:25 1022 30.18 851 25.13 5 41.1 51 -4.2 24.4
11:30 1022 30.18 851 25.13 5 41 50 -4.7 23.5
11:35 1022 30.18 851 25.13 5 40.9 49 -4.8 23.3
11:40 1022 30.18 851 25.13 5.1 41.1 49 -4.9 23.2
11:45 1022 30.18 851 25.13 5.2 41.4 48 -4.9 23.3
11:50 1022 30.18 851 25.13 5.3 41.5 48 -4.8 23.4
11:55 1022 30.18 851 25.13 5.2 41.4 48 -4.8 23.4
12:00 1022 30.18 851 25.13 5.2 41.3 48 -4.9 23.1
12:05 1022 30.18 851 25.13 5.2 41.4 48 -4.8 23.3
12:10 1022 30.18 851 25.13 5.3 41.5 49 -4.5 23.9
12:15 1022 30.18 851 25.13 5.2 41.4 50 -4.4 24.1
12:20 1022 30.18 851 25.13 5.2 41.3 50 -4.4 24.1
12:25 1022 30.18 851 25.13 5.2 41.4 50 -4.4 24.1
12:30 1022 30.18 851 25.13 5.2 41.4 50 -4.4 24.1
12:35 1022 30.18 851 25.13 5.2 41.4 51 -4.2 24.5
12:40 1022 30.18 851 25.13 5.2 41.4 50 -4.3 24.3
12:45 1022 30.18 851 25.13 5.2 41.4 50 -4.2 24.4
12:50 1022 30.18 851 25.13 5.4 41.7 50 -4.2 24.4
12:55 1022 30.18 851 25.13 5.5 41.9 50 -4.2 24.4
13:00 1022 30.18 851 25.13 5.6 42.1 50 -4.1 24.6
13:05 1022 30.18 851 25.13 5.6 42.2 50 -4 24.7
13:10 1022 30.18 851 25.13 5.8 42.4 50 -3.9 25
13:15 1022 30.18 851 25.13 5.7 42.2 50 -4 24.9
13:20 1022 30.18 851 25.13 5.8 42.4 50 -3.9 24.9
13:25 1022 30.18 851 25.13 6 42.8 49 -3.9 24.9
13:30 1022 30.18 851 25.13 6.2 43.1 48 -4.1 24.5
13:35 1022 30.18 851 25.13 6.2 43.2 48 -4.1 24.7
13:40 1022 30.18 852 25.16 6.4 43.6 50 -3.3 26.1
13:45 1022 30.18 852 25.16 5.4 41.8 53 -3.3 26.1
13:50 1022 30.18 852 25.16 4.9 40.9 53 -3.8 25.1
13:55 1022 30.18 852 25.16 5.2 41.3 52 -4 24.8
14:00 1022 30.18 852 25.16 5 41 53 -3.8 25.2
14:05 1022 30.18 852 25.16 5.3 41.6 52 -3.8 25.1
14:10 1022 30.18 852 25.16 5.7 42.3 50 -3.8 25.2
14:15 1022 30.18 851 25.13 6 42.8 49 -3.9 25.1
14:20 1022 30.18 852 25.16 6.4 43.5 48 -3.9 25.1
14:25 1023 30.21 852 25.16 6.2 43.2 49 -3.6 25.5
14:30 1023 30.21 852 25.16 5.9 42.6 52 -3.2 26.3
14:35 1023 30.21 852 25.16 5.3 41.6 54 -3.1 26.3
14:40 1023 30.21 852 25.16 4.6 40.3 56 -3.3 26
14:45 1023 30.21 852 25.16 4.3 39.8 58 -3.3 26.1
14:50 1023 30.21 852 25.16 4.2 39.5 56 -3.9 25
14:55 1023 30.21 852 25.16 4.2 39.5 57 -3.6 25.5
15:00 1023 30.21 852 25.16 4 39.1 57 -3.7 25.3
15:05 1023 30.21 852 25.16 3.8 38.9 56 -4.1 24.7
15:10 1023 30.21 852 25.16 4 39.1 58 -3.5 25.6
15:15 1023 30.21 852 25.16 3.6 38.5 59 -3.6 25.5
15:20 1023 30.21 852 25.16 3.5 38.3 57 -4.1 24.6
15:25 1023 30.21 852 25.16 3.6 38.4 58 -4 24.7
15:30 1023 30.21 852 25.16 3.5 38.3 58 -4 24.8
15:35 1023 30.21 852 25.16 3.5 38.3 57 -4.2 24.5
15:40 1023 30.21 852 25.16 3.3 38 58 -4.1 24.6
15:45 1023 30.21 852 25.16 3.1 37.6 59 -4.1 24.6
15:50 1023 30.21 852 25.16 3 37.5 59 -4.1 24.6
15:55 1023 30.21 852 25.16 3 37.3 59 -4.3 24.2
16:00 1023 30.21 852 25.16 3.1 37.7 59 -4.2 24.5
16:05 1023 30.21 852 25.16 3.1 37.6 58 -4.4 24.1
16:10 1023 30.21 852 25.16 3.4 38.1 56 -4.5 23.8
16:15 1023 30.21 853 25.19 3.6 38.5 56 -4.5 24
16:20 1024 30.24 853 25.19 3.5 38.3 55 -4.6 23.7
16:25 1024 30.24 853 25.19 3.7 38.7 53 -5 23
16:30 1024 30.24 853 25.19 3.9 39 53 -4.9 23.1
16:35 1024 30.24 853 25.19 3.9 39.1 52 -5.2 22.7
16:40 1024 30.24 853 25.19 3.8 38.8 52 -5.2 22.6
16:45 1024 30.24 853 25.19 3.8 38.9 51 -5.3 22.4
16:50 1024 30.24 853 25.19 4 39.2 50 -5.5 22.1
16:55 1024 30.24 853 25.19 3.8 38.8 53 -5 23
17:00 1024 30.24 853 25.19 3.5 38.2 53 -5.2 22.7
17:05 1024 30.24 853 25.19 3.2 37.8 55 -5 23
17:10 1024 30.24 853 25.19 2.8 37 55 -5.3 22.4
17:15 1024 30.24 853 25.19 2.7 36.8 56 -5.2 22.7
17:20 1024 30.24 853 25.19 2.5 36.4 57 -5.1 22.8
17:25 1024 30.24 853 25.19 2.5 36.5 57 -5.2 22.7
17:30 1024 30.24 853 25.19 2.5 36.5 59 -4.7 23.5
17:35 1024 30.24 853 25.19 2.1 35.7 62 -4.5 23.9
17:40 1024 30.24 853 25.19 2 35.5 61 -4.8 23.4
17:45 1024 30.24 853 25.19 2.1 35.8 58 -5.2 22.6
17:50 1024 30.24 853 25.19 2.5 36.5 54 -6 21.2
17:55 1024 30.24 853 25.19 3 37.4 53 -5.7 21.7
18:00 1024 30.24 853 25.19 2.8 37 56 -5.1 22.8
18:05 1024 30.24 853 25.19 1.9 35.4 59 -5.3 22.5
18:10 1024 30.24 853 25.19 1.8 35.3 56 -5.9 21.3
18:15 1024 30.24 853 25.19 3.1 37.6 50 -6.3 20.6
18:20 1024 30.24 853 25.19 3.5 38.3 52 -5.4 22.2
18:25 1024 30.24 853 25.19 3.1 37.5 56 -5 23.1
18:30 1024 30.24 853 25.19 1.8 35.2 61 -5 23
18:35 1024 30.24 853 25.19 0.9 33.6 63 -5.3 22.5
18:40 1024 30.24 853 25.19 0.8 33.4 63 -5.4 22.2
18:45 1024 30.24 853 25.19 1 33.8 63 -5.3 22.5
18:50 1024 30.24 853 25.19 1.2 34.1 62 -5.3 22.5
18:55 1024 30.24 853 25.19 1.1 33.9 61 -5.6 21.9
19:00 1024 30.24 853 25.19 0.8 33.4 63 -5.4 22.3
19:05 1024 30.24 853 25.19 0.4 32.7 65 -5.4 22.3
19:10 1024 30.24 853 25.19 0.4 32.7 65 -5.5 22.1
19:15 1024 30.24 854 25.22 0.5 32.8 65 -5.4 22.3
19:20 1024 30.24 853 25.19 0.7 33.2 62 -5.9 21.4
19:25 1024 30.24 853 25.19 0.9 33.6 61 -5.7 21.7
19:30 1024 30.24 853 25.19 1 33.8 60 -5.9 21.4
19:35 1024 30.24 853 25.19 1.2 34.2 59 -5.8 21.5
19:40 1024 30.24 853 25.19 1 33.8 58 -6.4 20.5
19:45 1024 30.24 853 25.19 1.5 34.6 56 -6.4 20.6
19:50 1024 30.24 853 25.19 1.9 35.3 51 -7.2 19
19:55 1024 30.24 853 25.19 2.7 36.8 47 -7.5 18.4
20:00 1024 30.24 853 25.19 3.3 37.9 46 -7.4 18.7
20:05 1024 30.24 853 25.19 3.3 38 45 -7.4 18.6
20:10 1024 30.24 853 25.19 3.4 38.2 45 -7.5 18.6
20:15 1024 30.24 853 25.19 3.4 38.2 43 -8.1 17.5
20:20 1024 30.24 853 25.19 3.8 38.8 42 -8 17.5
20:25 1024 30.24 854 25.22 3.5 38.2 52 -5.4 22.3
20:30 1024 30.24 853 25.19 0.9 33.5 62 -5.5 22
20:35 1024 30.24 854 25.22 -0.1 31.8 62 -6.5 20.3
20:40 1024 30.24 853 25.19 0.4 32.7 60 -6.6 20.2
20:45 1024 30.24 854 25.22 0.9 33.6 57 -6.8 19.8
20:50 1024 30.24 854 25.22 1.1 34 55 -6.9 19.6
20:55 1024 30.24 853 25.19 1.1 34.1 57 -6.5 20.4
21:00 1024 30.24 853 25.19 1.1 34 57 -6.5 20.4
21:05 1024 30.24 853 25.19 1 33.9 57 -6.5 20.3
21:10 1024 30.24 853 25.19 1.2 34.1 55 -6.9 19.5
21:15 1024 30.24 853 25.19 1.5 34.7 55 -6.6 20.1
21:20 1024 30.24 853 25.19 1.4 34.6 54 -6.9 19.6
21:25 1024 30.24 853 25.19 1.8 35.2 52 -7 19.4
21:30 1024 30.24 853 25.19 2 35.6 51 -7.1 19.2
21:35 1024 30.24 853 25.19 2.3 36.2 50 -7.1 19.2
21:40 1024 30.24 853 25.19 2.1 35.8 53 -6.4 20.5
21:45 1024 30.24 853 25.19 1.8 35.2 52 -7.1 19.3
21:50 1024 30.24 853 25.19 2 35.6 50 -7.4 18.7
21:55 1024 30.24 853 25.19 1.8 35.3 53 -6.6 20
22:00 1024 30.24 853 25.19 1.3 34.4 52 -7.5 18.5
22:05 1024 30.24 853 25.19 1.4 34.5 53 -7.3 18.9
22:10 1024 30.24 853 25.19 1 33.9 54 -7.2 19.1
22:15 1024 30.24 853 25.19 0.9 33.7 53 -7.5 18.5
22:20 1024 30.24 853 25.19 0.9 33.5 55 -7.1 19.2
22:25 1024 30.24 853 25.19 0.2 32.3 58 -7.2 19.1
22:30 1024 30.24 853 25.19 0.2 32.4 57 -7.2 19.1
22:35 1024 30.24 853 25.19 0.2 32.4 60 -6.7 19.9
22:40 1024 30.24 853 25.19 -0.2 31.6 61 -6.9 19.5
22:45 1024 30.24 853 25.19 -0.5 31.1 60 -7.3 18.9
22:50 1024 30.24 853 25.19 -0.7 30.7 61 -7.2 19
22:55 1024 30.24 853 25.19 -0.5 31 60 -7.4 18.8
23:00 1024 30.24 853 25.19 -0.6 30.9 62 -7.1 19.2
23:05 1024 30.24 853 25.19 -0.6 30.9 61 -7.3 18.8
23:10 1024 30.24 853 25.19 -0.3 31.5 59 -7.4 18.7
23:15 1024 30.24 853 25.19 0 32.1 56 -7.6 18.3
23:20 1024 30.24 853 25.19 0.6 33 55 -7.4 18.7
23:25 1024 30.24 853 25.19 0.4 32.8 57 -7.1 19.2
23:30 1024 30.24 853 25.19 0.1 32.2 58 -7.2 19.1
23:35 1024 30.24 853 25.19 -0.5 31.1 61 -7.1 19.2
23:40 1024 30.24 853 25.19 -0.9 30.4 64 -6.8 19.8
23:45 1024 30.24 853 25.19 -0.8 30.6 64 -6.8 19.7
23:50 1024 30.24 853 25.19 -0.6 31 58 -7.8 18
23:55 1024 30.24 853 25.19 -0.1 31.8 56 -7.9 17.8
24:00 1024 30.24 853 25.19 0.1 32.1 54 -8.1 17.5